sensor_id;sensor_type;location;lat;lon;timestamp;P1;durP1;ratioP1;P2;durP2;ratioP2
84913;SDS011;75177;43.832;5.974;2024-03-08T00:00:22;13.30;;;8.23;;
84913;SDS011;75177;43.832;5.974;2024-03-08T00:02:48;15.48;;;8.88;;
84913;SDS011;75177;43.832;5.974;2024-03-08T00:05:15;19.90;;;11.23;;
84913;SDS011;75177;43.832;5.974;2024-03-08T00:07:43;29.15;;;15.68;;
84913;SDS011;75177;43.832;5.974;2024-03-08T00:10:09;25.60;;;16.13;;
84913;SDS011;75177;43.832;5.974;2024-03-08T00:12:39;31.73;;;18.23;;
84913;SDS011;75177;43.832;5.974;2024-03-08T00:15:12;33.58;;;17.92;;
84913;SDS011;75177;43.832;5.974;2024-03-08T00:17:41;29.38;;;16.55;;
84913;SDS011;75177;43.832;5.974;2024-03-08T00:20:07;41.28;;;23.02;;
84913;SDS011;75177;43.832;5.974;2024-03-08T00:22:36;21.80;;;12.70;;
84913;SDS011;75177;43.832;5.974;2024-03-08T00:25:03;18.95;;;10.07;;
84913;SDS011;75177;43.832;5.974;2024-03-08T00:27:29;25.80;;;14.20;;
84913;SDS011;75177;43.832;5.974;2024-03-08T00:29:55;20.30;;;10.82;;
84913;SDS011;75177;43.832;5.974;2024-03-08T00:32:21;19.30;;;9.98;;
84913;SDS011;75177;43.832;5.974;2024-03-08T00:34:49;17.45;;;9.35;;
84913;SDS011;75177;43.832;5.974;2024-03-08T00:37:17;14.20;;;7.63;;
84913;SDS011;75177;43.832;5.974;2024-03-08T00:39:42;17.92;;;8.02;;
84913;SDS011;75177;43.832;5.974;2024-03-08T00:42:08;18.75;;;9.25;;
84913;SDS011;75177;43.832;5.974;2024-03-08T00:44:33;11.75;;;6.43;;
84913;SDS011;75177;43.832;5.974;2024-03-08T00:46:59;13.75;;;6.50;;
84913;SDS011;75177;43.832;5.974;2024-03-08T00:49:24;13.15;;;7.28;;
84913;SDS011;75177;43.832;5.974;2024-03-08T00:51:50;15.68;;;8.05;;
84913;SDS011;75177;43.832;5.974;2024-03-08T00:54:15;26.08;;;13.10;;
84913;SDS011;75177;43.832;5.974;2024-03-08T00:56:41;32.72;;;16.83;;
84913;SDS011;75177;43.832;5.974;2024-03-08T00:59:07;20.50;;;11.60;;
84913;SDS011;75177;43.832;5.974;2024-03-08T01:01:32;27.73;;;13.60;;
84913;SDS011;75177;43.832;5.974;2024-03-08T01:03:58;24.65;;;12.25;;
84913;SDS011;75177;43.832;5.974;2024-03-08T01:06:23;15.70;;;8.52;;
84913;SDS011;75177;43.832;5.974;2024-03-08T01:08:49;14.48;;;7.95;;
84913;SDS011;75177;43.832;5.974;2024-03-08T01:11:17;19.00;;;9.50;;
84913;SDS011;75177;43.832;5.974;2024-03-08T01:13:44;15.02;;;7.88;;
84913;SDS011;75177;43.832;5.974;2024-03-08T01:16:12;15.65;;;7.22;;
84913;SDS011;75177;43.832;5.974;2024-03-08T01:18:38;14.65;;;7.35;;
84913;SDS011;75177;43.832;5.974;2024-03-08T01:21:03;16.25;;;8.20;;
84913;SDS011;75177;43.832;5.974;2024-03-08T01:23:29;18.10;;;9.00;;
84913;SDS011;75177;43.832;5.974;2024-03-08T01:25:55;22.58;;;10.95;;
84913;SDS011;75177;43.832;5.974;2024-03-08T01:28:25;27.33;;;13.20;;
84913;SDS011;75177;43.832;5.974;2024-03-08T01:30:51;16.27;;;8.75;;
84913;SDS011;75177;43.832;5.974;2024-03-08T01:33:21;15.85;;;7.97;;
84913;SDS011;75177;43.832;5.974;2024-03-08T01:35:48;13.27;;;7.20;;
84913;SDS011;75177;43.832;5.974;2024-03-08T01:38:13;15.20;;;7.93;;
84913;SDS011;75177;43.832;5.974;2024-03-08T01:40:38;14.63;;;6.78;;
84913;SDS011;75177;43.832;5.974;2024-03-08T01:43:22;15.63;;;6.05;;
84913;SDS011;75177;43.832;5.974;2024-03-08T01:45:52;11.70;;;5.60;;
84913;SDS011;75177;43.832;5.974;2024-03-08T01:48:17;16.52;;;7.40;;
84913;SDS011;75177;43.832;5.974;2024-03-08T01:50:47;16.65;;;7.60;;
84913;SDS011;75177;43.832;5.974;2024-03-08T01:53:12;22.42;;;7.82;;
84913;SDS011;75177;43.832;5.974;2024-03-08T01:55:40;18.17;;;7.22;;
84913;SDS011;75177;43.832;5.974;2024-03-08T01:58:06;18.95;;;7.75;;
84913;SDS011;75177;43.832;5.974;2024-03-08T02:03:00;15.30;;;6.63;;
84913;SDS011;75177;43.832;5.974;2024-03-08T02:05:26;15.27;;;6.13;;
84913;SDS011;75177;43.832;5.974;2024-03-08T02:07:52;11.15;;;5.50;;
84913;SDS011;75177;43.832;5.974;2024-03-08T02:10:18;14.98;;;5.80;;
84913;SDS011;75177;43.832;5.974;2024-03-08T02:12:44;10.32;;;5.63;;
84913;SDS011;75177;43.832;5.974;2024-03-08T02:15:11;13.18;;;5.70;;
84913;SDS011;75177;43.832;5.974;2024-03-08T02:17:37;10.65;;;5.95;;
84913;SDS011;75177;43.832;5.974;2024-03-08T02:20:02;17.05;;;7.95;;
84913;SDS011;75177;43.832;5.974;2024-03-08T02:22:29;9.23;;;4.90;;
84913;SDS011;75177;43.832;5.974;2024-03-08T02:24:57;10.85;;;5.68;;
84913;SDS011;75177;43.832;5.974;2024-03-08T02:27:25;10.80;;;5.32;;
84913;SDS011;75177;43.832;5.974;2024-03-08T02:29:50;10.90;;;6.20;;
84913;SDS011;75177;43.832;5.974;2024-03-08T02:32:24;18.15;;;8.60;;
84913;SDS011;75177;43.832;5.974;2024-03-08T02:34:50;10.75;;;6.00;;
84913;SDS011;75177;43.832;5.974;2024-03-08T02:37:16;11.63;;;5.40;;
84913;SDS011;75177;43.832;5.974;2024-03-08T02:39:42;12.25;;;5.03;;
84913;SDS011;75177;43.832;5.974;2024-03-08T02:42:07;9.05;;;5.57;;
84913;SDS011;75177;43.832;5.974;2024-03-08T02:44:33;7.10;;;4.30;;
84913;SDS011;75177;43.832;5.974;2024-03-08T02:46:58;8.10;;;5.00;;
84913;SDS011;75177;43.832;5.974;2024-03-08T02:49:25;9.57;;;5.10;;
84913;SDS011;75177;43.832;5.974;2024-03-08T02:51:51;8.82;;;4.93;;
84913;SDS011;75177;43.832;5.974;2024-03-08T02:54:17;7.05;;;4.07;;
84913;SDS011;75177;43.832;5.974;2024-03-08T02:56:44;8.77;;;3.80;;
84913;SDS011;75177;43.832;5.974;2024-03-08T02:59:11;8.40;;;4.50;;
84913;SDS011;75177;43.832;5.974;2024-03-08T03:01:37;8.48;;;4.53;;
84913;SDS011;75177;43.832;5.974;2024-03-08T03:04:04;6.97;;;3.72;;
84913;SDS011;75177;43.832;5.974;2024-03-08T03:06:29;7.65;;;4.00;;
84913;SDS011;75177;43.832;5.974;2024-03-08T03:08:56;10.85;;;6.05;;
84913;SDS011;75177;43.832;5.974;2024-03-08T03:11:22;9.80;;;5.30;;
84913;SDS011;75177;43.832;5.974;2024-03-08T03:13:48;9.23;;;5.07;;
84913;SDS011;75177;43.832;5.974;2024-03-08T03:16:16;10.05;;;5.55;;
84913;SDS011;75177;43.832;5.974;2024-03-08T03:18:45;9.05;;;4.32;;
84913;SDS011;75177;43.832;5.974;2024-03-08T03:21:11;9.25;;;4.03;;
84913;SDS011;75177;43.832;5.974;2024-03-08T03:23:38;11.88;;;5.43;;
84913;SDS011;75177;43.832;5.974;2024-03-08T03:26:05;10.85;;;4.82;;
84913;SDS011;75177;43.832;5.974;2024-03-08T03:28:33;7.57;;;3.95;;
84913;SDS011;75177;43.832;5.974;2024-03-08T03:30:59;7.78;;;4.20;;
84913;SDS011;75177;43.832;5.974;2024-03-08T03:33:25;10.45;;;4.13;;
84913;SDS011;75177;43.832;5.974;2024-03-08T03:35:50;8.95;;;5.40;;
84913;SDS011;75177;43.832;5.974;2024-03-08T03:38:17;7.07;;;3.65;;
84913;SDS011;75177;43.832;5.974;2024-03-08T03:40:42;9.02;;;4.57;;
84913;SDS011;75177;43.832;5.974;2024-03-08T03:43:10;7.75;;;4.10;;
84913;SDS011;75177;43.832;5.974;2024-03-08T03:45:36;10.63;;;5.35;;
84913;SDS011;75177;43.832;5.974;2024-03-08T03:48:02;9.05;;;5.30;;
84913;SDS011;75177;43.832;5.974;2024-03-08T03:50:28;10.00;;;5.53;;
84913;SDS011;75177;43.832;5.974;2024-03-08T03:52:53;11.10;;;5.22;;
84913;SDS011;75177;43.832;5.974;2024-03-08T03:55:19;8.45;;;4.20;;
84913;SDS011;75177;43.832;5.974;2024-03-08T03:57:45;8.02;;;4.35;;
84913;SDS011;75177;43.832;5.974;2024-03-08T04:00:11;8.13;;;4.40;;
84913;SDS011;75177;43.832;5.974;2024-03-08T04:02:37;7.13;;;4.55;;
84913;SDS011;75177;43.832;5.974;2024-03-08T04:05:04;12.23;;;6.47;;
84913;SDS011;75177;43.832;5.974;2024-03-08T04:07:33;7.63;;;4.65;;
84913;SDS011;75177;43.832;5.974;2024-03-08T04:10:00;8.27;;;4.55;;
84913;SDS011;75177;43.832;5.974;2024-03-08T04:12:27;6.28;;;3.85;;
84913;SDS011;75177;43.832;5.974;2024-03-08T04:14:54;6.38;;;4.00;;
84913;SDS011;75177;43.832;5.974;2024-03-08T04:17:20;7.18;;;4.03;;
84913;SDS011;75177;43.832;5.974;2024-03-08T04:19:46;4.47;;;2.97;;
84913;SDS011;75177;43.832;5.974;2024-03-08T04:22:13;4.63;;;3.03;;
84913;SDS011;75177;43.832;5.974;2024-03-08T04:24:38;6.13;;;3.65;;
84913;SDS011;75177;43.832;5.974;2024-03-08T04:27:05;8.70;;;5.43;;
84913;SDS011;75177;43.832;5.974;2024-03-08T04:29:31;10.50;;;5.40;;
84913;SDS011;75177;43.832;5.974;2024-03-08T04:31:57;8.30;;;4.47;;
84913;SDS011;75177;43.832;5.974;2024-03-08T04:34:23;6.75;;;3.80;;
84913;SDS011;75177;43.832;5.974;2024-03-08T04:36:49;7.72;;;4.00;;
84913;SDS011;75177;43.832;5.974;2024-03-08T04:39:14;7.78;;;4.00;;
84913;SDS011;75177;43.832;5.974;2024-03-08T04:41:40;5.50;;;3.35;;
84913;SDS011;75177;43.832;5.974;2024-03-08T04:44:09;5.47;;;3.63;;
84913;SDS011;75177;43.832;5.974;2024-03-08T04:46:35;8.20;;;4.30;;
84913;SDS011;75177;43.832;5.974;2024-03-08T05:02:09;6.75;;;3.72;;
84913;SDS011;75177;43.832;5.974;2024-03-08T05:04:36;7.97;;;3.38;;
84913;SDS011;75177;43.832;5.974;2024-03-08T05:07:02;8.77;;;4.95;;
84913;SDS011;75177;43.832;5.974;2024-03-08T05:09:27;8.20;;;4.35;;
84913;SDS011;75177;43.832;5.974;2024-03-08T05:11:56;7.78;;;3.60;;
84913;SDS011;75177;43.832;5.974;2024-03-08T05:14:24;6.88;;;3.88;;
84913;SDS011;75177;43.832;5.974;2024-03-08T05:16:53;7.65;;;3.95;;
84913;SDS011;75177;43.832;5.974;2024-03-08T05:19:19;9.63;;;4.50;;
84913;SDS011;75177;43.832;5.974;2024-03-08T05:21:49;7.35;;;4.18;;
84913;SDS011;75177;43.832;5.974;2024-03-08T05:24:15;7.07;;;3.85;;
84913;SDS011;75177;43.832;5.974;2024-03-08T05:26:41;12.18;;;5.10;;
84913;SDS011;75177;43.832;5.974;2024-03-08T05:29:07;9.18;;;4.00;;
84913;SDS011;75177;43.832;5.974;2024-03-08T05:34:15;6.65;;;3.92;;
84913;SDS011;75177;43.832;5.974;2024-03-08T05:36:41;10.93;;;4.50;;
84913;SDS011;75177;43.832;5.974;2024-03-08T05:39:11;8.60;;;4.22;;
84913;SDS011;75177;43.832;5.974;2024-03-08T05:41:40;7.57;;;3.95;;
84913;SDS011;75177;43.832;5.974;2024-03-08T05:44:06;7.78;;;3.72;;
84913;SDS011;75177;43.832;5.974;2024-03-08T05:46:32;7.20;;;4.07;;
84913;SDS011;75177;43.832;5.974;2024-03-08T05:48:58;7.28;;;4.00;;
84913;SDS011;75177;43.832;5.974;2024-03-08T05:51:30;9.75;;;4.13;;
84913;SDS011;75177;43.832;5.974;2024-03-08T05:53:56;7.93;;;4.10;;
84913;SDS011;75177;43.832;5.974;2024-03-08T05:56:21;8.55;;;4.00;;
84913;SDS011;75177;43.832;5.974;2024-03-08T05:58:50;6.80;;;3.78;;
84913;SDS011;75177;43.832;5.974;2024-03-08T06:01:15;7.30;;;3.90;;
84913;SDS011;75177;43.832;5.974;2024-03-08T06:03:41;8.80;;;3.75;;
84913;SDS011;75177;43.832;5.974;2024-03-08T06:06:13;8.00;;;3.40;;
84913;SDS011;75177;43.832;5.974;2024-03-08T06:08:39;7.95;;;4.05;;
84913;SDS011;75177;43.832;5.974;2024-03-08T06:11:05;10.65;;;5.88;;
84913;SDS011;75177;43.832;5.974;2024-03-08T06:13:31;10.50;;;5.80;;
84913;SDS011;75177;43.832;5.974;2024-03-08T06:15:58;14.25;;;6.45;;
84913;SDS011;75177;43.832;5.974;2024-03-08T06:18:25;10.25;;;5.15;;
84913;SDS011;75177;43.832;5.974;2024-03-08T06:20:50;10.05;;;4.90;;
84913;SDS011;75177;43.832;5.974;2024-03-08T06:23:16;8.40;;;4.68;;
84913;SDS011;75177;43.832;5.974;2024-03-08T06:25:43;10.55;;;5.55;;
84913;SDS011;75177;43.832;5.974;2024-03-08T06:28:09;7.95;;;4.60;;
84913;SDS011;75177;43.832;5.974;2024-03-08T06:30:34;8.13;;;4.43;;
84913;SDS011;75177;43.832;5.974;2024-03-08T06:33:00;10.02;;;4.95;;
84913;SDS011;75177;43.832;5.974;2024-03-08T06:35:25;13.90;;;7.10;;
84913;SDS011;75177;43.832;5.974;2024-03-08T06:37:50;15.00;;;7.38;;
84913;SDS011;75177;43.832;5.974;2024-03-08T06:40:16;10.95;;;5.72;;
84913;SDS011;75177;43.832;5.974;2024-03-08T06:42:41;11.82;;;5.78;;
84913;SDS011;75177;43.832;5.974;2024-03-08T06:45:08;12.00;;;5.50;;
84913;SDS011;75177;43.832;5.974;2024-03-08T06:47:35;8.00;;;4.50;;
84913;SDS011;75177;43.832;5.974;2024-03-08T06:50:00;11.02;;;4.63;;
84913;SDS011;75177;43.832;5.974;2024-03-08T06:52:26;9.30;;;4.47;;
84913;SDS011;75177;43.832;5.974;2024-03-08T06:54:51;10.85;;;5.60;;
84913;SDS011;75177;43.832;5.974;2024-03-08T06:57:17;18.48;;;7.78;;
84913;SDS011;75177;43.832;5.974;2024-03-08T06:59:43;18.98;;;8.52;;
84913;SDS011;75177;43.832;5.974;2024-03-08T07:02:09;17.08;;;8.02;;
84913;SDS011;75177;43.832;5.974;2024-03-08T07:04:35;15.27;;;7.32;;
84913;SDS011;75177;43.832;5.974;2024-03-08T07:07:06;18.92;;;7.93;;
84913;SDS011;75177;43.832;5.974;2024-03-08T07:09:35;20.67;;;10.00;;
84913;SDS011;75177;43.832;5.974;2024-03-08T07:12:03;20.70;;;8.05;;
84913;SDS011;75177;43.832;5.974;2024-03-08T07:14:29;14.10;;;6.88;;
84913;SDS011;75177;43.832;5.974;2024-03-08T07:16:56;15.97;;;7.57;;
84913;SDS011;75177;43.832;5.974;2024-03-08T07:19:21;20.70;;;9.27;;
84913;SDS011;75177;43.832;5.974;2024-03-08T07:21:47;14.60;;;7.97;;
84913;SDS011;75177;43.832;5.974;2024-03-08T07:24:12;13.60;;;7.03;;
84913;SDS011;75177;43.832;5.974;2024-03-08T07:26:58;17.58;;;7.97;;
84913;SDS011;75177;43.832;5.974;2024-03-08T07:29:24;13.45;;;6.35;;
84913;SDS011;75177;43.832;5.974;2024-03-08T07:31:49;15.18;;;7.15;;
84913;SDS011;75177;43.832;5.974;2024-03-08T07:34:21;15.55;;;8.20;;
84913;SDS011;75177;43.832;5.974;2024-03-08T07:36:46;11.07;;;5.82;;
84913;SDS011;75177;43.832;5.974;2024-03-08T07:51:45;25.90;;;13.27;;
84913;SDS011;75177;43.832;5.974;2024-03-08T07:54:10;33.22;;;14.48;;
84913;SDS011;75177;43.832;5.974;2024-03-08T07:56:36;24.55;;;11.55;;
84913;SDS011;75177;43.832;5.974;2024-03-08T07:59:01;21.23;;;11.02;;
84913;SDS011;75177;43.832;5.974;2024-03-08T08:01:29;23.08;;;12.60;;
84913;SDS011;75177;43.832;5.974;2024-03-08T08:03:56;26.10;;;13.60;;
84913;SDS011;75177;43.832;5.974;2024-03-08T08:06:22;36.55;;;18.58;;
84913;SDS011;75177;43.832;5.974;2024-03-08T08:08:47;30.50;;;13.68;;
84913;SDS011;75177;43.832;5.974;2024-03-08T08:11:13;21.48;;;9.35;;
84913;SDS011;75177;43.832;5.974;2024-03-08T08:13:41;22.40;;;11.40;;
84913;SDS011;75177;43.832;5.974;2024-03-08T08:16:08;38.80;;;15.15;;
84913;SDS011;75177;43.832;5.974;2024-03-08T08:18:34;24.65;;;12.38;;
84913;SDS011;75177;43.832;5.974;2024-03-08T08:21:01;21.47;;;10.90;;
84913;SDS011;75177;43.832;5.974;2024-03-08T08:23:27;24.67;;;12.70;;
84913;SDS011;75177;43.832;5.974;2024-03-08T08:25:52;15.38;;;8.80;;
84913;SDS011;75177;43.832;5.974;2024-03-08T08:28:18;22.45;;;10.10;;
84913;SDS011;75177;43.832;5.974;2024-03-08T08:30:46;10.02;;;5.45;;
84913;SDS011;75177;43.832;5.974;2024-03-08T08:33:12;15.77;;;8.18;;
84913;SDS011;75177;43.832;5.974;2024-03-08T08:35:38;17.42;;;8.35;;
84913;SDS011;75177;43.832;5.974;2024-03-08T08:38:04;22.20;;;10.88;;
84913;SDS011;75177;43.832;5.974;2024-03-08T08:40:29;20.13;;;9.95;;
84913;SDS011;75177;43.832;5.974;2024-03-08T08:42:58;18.42;;;9.70;;
84913;SDS011;75177;43.832;5.974;2024-03-08T08:45:24;16.15;;;9.35;;
84913;SDS011;75177;43.832;5.974;2024-03-08T08:47:50;21.27;;;10.52;;
84913;SDS011;75177;43.832;5.974;2024-03-08T08:50:16;16.80;;;9.15;;
84913;SDS011;75177;43.832;5.974;2024-03-08T08:52:48;23.02;;;12.32;;
84913;SDS011;75177;43.832;5.974;2024-03-08T08:55:14;22.98;;;10.25;;
84913;SDS011;75177;43.832;5.974;2024-03-08T08:57:40;23.42;;;11.98;;
84913;SDS011;75177;43.832;5.974;2024-03-08T09:00:06;14.93;;;8.00;;
84913;SDS011;75177;43.832;5.974;2024-03-08T09:02:33;20.33;;;11.15;;
84913;SDS011;75177;43.832;5.974;2024-03-08T09:04:59;21.60;;;10.55;;
84913;SDS011;75177;43.832;5.974;2024-03-08T09:07:26;17.63;;;8.90;;
84913;SDS011;75177;43.832;5.974;2024-03-08T09:09:52;23.08;;;11.73;;
84913;SDS011;75177;43.832;5.974;2024-03-08T09:12:22;17.73;;;8.80;;
84913;SDS011;75177;43.832;5.974;2024-03-08T09:14:48;21.92;;;11.02;;
84913;SDS011;75177;43.832;5.974;2024-03-08T09:17:14;9.75;;;6.13;;
84913;SDS011;75177;43.832;5.974;2024-03-08T09:19:42;12.23;;;6.88;;
84913;SDS011;75177;43.832;5.974;2024-03-08T09:22:08;11.18;;;6.25;;
84913;SDS011;75177;43.832;5.974;2024-03-08T09:24:33;15.70;;;8.68;;
84913;SDS011;75177;43.832;5.974;2024-03-08T09:26:59;15.48;;;6.97;;
84913;SDS011;75177;43.832;5.974;2024-03-08T09:29:24;14.57;;;8.50;;
84913;SDS011;75177;43.832;5.974;2024-03-08T09:31:51;15.25;;;8.70;;
84913;SDS011;75177;43.832;5.974;2024-03-08T09:34:16;14.30;;;8.43;;
84913;SDS011;75177;43.832;5.974;2024-03-08T09:36:43;19.03;;;9.73;;
84913;SDS011;75177;43.832;5.974;2024-03-08T09:39:09;13.68;;;7.20;;
84913;SDS011;75177;43.832;5.974;2024-03-08T09:41:34;11.45;;;6.75;;
84913;SDS011;75177;43.832;5.974;2024-03-08T09:44:00;16.70;;;8.55;;
84913;SDS011;75177;43.832;5.974;2024-03-08T09:46:26;17.02;;;9.02;;
84913;SDS011;75177;43.832;5.974;2024-03-08T09:48:55;15.15;;;9.05;;
84913;SDS011;75177;43.832;5.974;2024-03-08T09:51:25;18.55;;;10.60;;
84913;SDS011;75177;43.832;5.974;2024-03-08T09:53:53;14.52;;;8.85;;
84913;SDS011;75177;43.832;5.974;2024-03-08T09:56:19;16.73;;;8.60;;
84913;SDS011;75177;43.832;5.974;2024-03-08T09:58:46;17.45;;;9.82;;
84913;SDS011;75177;43.832;5.974;2024-03-08T10:01:34;17.17;;;8.45;;
84913;SDS011;75177;43.832;5.974;2024-03-08T10:03:59;15.23;;;8.52;;
84913;SDS011;75177;43.832;5.974;2024-03-08T10:06:27;15.32;;;8.68;;
84913;SDS011;75177;43.832;5.974;2024-03-08T10:08:52;17.83;;;9.90;;
84913;SDS011;75177;43.832;5.974;2024-03-08T10:11:18;17.83;;;9.85;;
84913;SDS011;75177;43.832;5.974;2024-03-08T10:13:44;21.15;;;9.57;;
84913;SDS011;75177;43.832;5.974;2024-03-08T10:16:11;12.82;;;6.82;;
84913;SDS011;75177;43.832;5.974;2024-03-08T10:18:37;9.82;;;5.80;;
84913;SDS011;75177;43.832;5.974;2024-03-08T10:21:06;15.45;;;8.93;;
84913;SDS011;75177;43.832;5.974;2024-03-08T10:23:35;19.23;;;10.93;;
84913;SDS011;75177;43.832;5.974;2024-03-08T10:26:17;9.37;;;5.53;;
84913;SDS011;75177;43.832;5.974;2024-03-08T10:28:46;14.52;;;8.43;;
84913;SDS011;75177;43.832;5.974;2024-03-08T10:31:15;22.67;;;11.48;;
84913;SDS011;75177;43.832;5.974;2024-03-08T10:33:42;23.45;;;12.40;;
84913;SDS011;75177;43.832;5.974;2024-03-08T10:36:08;17.67;;;9.45;;
84913;SDS011;75177;43.832;5.974;2024-03-08T10:38:37;17.40;;;9.00;;
84913;SDS011;75177;43.832;5.974;2024-03-08T10:41:07;15.15;;;7.32;;
84913;SDS011;75177;43.832;5.974;2024-03-08T10:43:42;12.93;;;7.70;;
84913;SDS011;75177;43.832;5.974;2024-03-08T10:46:14;13.55;;;8.10;;
84913;SDS011;75177;43.832;5.974;2024-03-08T10:48:51;16.70;;;9.13;;
84913;SDS011;75177;43.832;5.974;2024-03-08T10:51:20;11.20;;;7.00;;
84913;SDS011;75177;43.832;5.974;2024-03-08T10:53:46;11.48;;;6.20;;
84913;SDS011;75177;43.832;5.974;2024-03-08T10:56:14;10.38;;;5.60;;
84913;SDS011;75177;43.832;5.974;2024-03-08T10:58:39;16.63;;;8.50;;
84913;SDS011;75177;43.832;5.974;2024-03-08T11:01:06;11.63;;;5.72;;
84913;SDS011;75177;43.832;5.974;2024-03-08T11:06:07;14.52;;;8.25;;
84913;SDS011;75177;43.832;5.974;2024-03-08T11:08:35;10.15;;;5.05;;
84913;SDS011;75177;43.832;5.974;2024-03-08T11:11:01;10.77;;;5.90;;
84913;SDS011;75177;43.832;5.974;2024-03-08T11:13:37;10.82;;;6.15;;
84913;SDS011;75177;43.832;5.974;2024-03-08T11:16:12;8.38;;;5.63;;
84913;SDS011;75177;43.832;5.974;2024-03-08T11:18:58;9.38;;;6.13;;
84913;SDS011;75177;43.832;5.974;2024-03-08T11:21:33;11.68;;;5.93;;
84913;SDS011;75177;43.832;5.974;2024-03-08T11:23:59;9.15;;;5.65;;
84913;SDS011;75177;43.832;5.974;2024-03-08T11:26:26;8.82;;;5.63;;
84913;SDS011;75177;43.832;5.974;2024-03-08T11:28:51;9.18;;;5.60;;
84913;SDS011;75177;43.832;5.974;2024-03-08T11:33:46;8.07;;;5.13;;
84913;SDS011;75177;43.832;5.974;2024-03-08T11:36:20;6.78;;;4.57;;
84913;SDS011;75177;43.832;5.974;2024-03-08T11:38:47;8.25;;;5.82;;
84913;SDS011;75177;43.832;5.974;2024-03-08T11:41:24;8.27;;;5.05;;
84913;SDS011;75177;43.832;5.974;2024-03-08T11:44:01;9.18;;;5.35;;
84913;SDS011;75177;43.832;5.974;2024-03-08T11:46:30;10.52;;;6.10;;
84913;SDS011;75177;43.832;5.974;2024-03-08T11:48:55;10.82;;;6.32;;
84913;SDS011;75177;43.832;5.974;2024-03-08T11:51:21;11.65;;;6.47;;
84913;SDS011;75177;43.832;5.974;2024-03-08T11:53:51;13.30;;;6.32;;
84913;SDS011;75177;43.832;5.974;2024-03-08T11:56:17;13.00;;;6.90;;
84913;SDS011;75177;43.832;5.974;2024-03-08T11:58:52;16.35;;;7.75;;
84913;SDS011;75177;43.832;5.974;2024-03-08T12:01:19;10.00;;;5.20;;
84913;SDS011;75177;43.832;5.974;2024-03-08T12:03:44;22.38;;;10.55;;
84913;SDS011;75177;43.832;5.974;2024-03-08T12:06:23;12.82;;;6.95;;
84913;SDS011;75177;43.832;5.974;2024-03-08T12:08:49;14.15;;;6.38;;
84913;SDS011;75177;43.832;5.974;2024-03-08T12:11:15;15.50;;;7.63;;
84913;SDS011;75177;43.832;5.974;2024-03-08T12:13:43;13.77;;;6.85;;
84913;SDS011;75177;43.832;5.974;2024-03-08T12:16:11;15.88;;;7.57;;
84913;SDS011;75177;43.832;5.974;2024-03-08T12:18:38;17.02;;;6.30;;
84913;SDS011;75177;43.832;5.974;2024-03-08T12:21:13;11.80;;;5.82;;
84913;SDS011;75177;43.832;5.974;2024-03-08T12:23:42;10.32;;;5.95;;
84913;SDS011;75177;43.832;5.974;2024-03-08T12:26:11;11.85;;;7.13;;
84913;SDS011;75177;43.832;5.974;2024-03-08T12:28:42;8.05;;;4.90;;
84913;SDS011;75177;43.832;5.974;2024-03-08T12:31:12;8.70;;;5.38;;
84913;SDS011;75177;43.832;5.974;2024-03-08T12:33:52;9.90;;;5.25;;
84913;SDS011;75177;43.832;5.974;2024-03-08T12:36:18;7.13;;;4.45;;
84913;SDS011;75177;43.832;5.974;2024-03-08T12:38:45;7.13;;;5.05;;
84913;SDS011;75177;43.832;5.974;2024-03-08T12:41:15;10.60;;;4.50;;
84913;SDS011;75177;43.832;5.974;2024-03-08T12:43:42;9.23;;;5.05;;
84913;SDS011;75177;43.832;5.974;2024-03-08T12:46:11;7.72;;;5.15;;
84913;SDS011;75177;43.832;5.974;2024-03-08T12:48:37;5.65;;;3.72;;
84913;SDS011;75177;43.832;5.974;2024-03-08T12:51:06;8.27;;;3.97;;
84913;SDS011;75177;43.832;5.974;2024-03-08T12:53:32;6.40;;;3.90;;
84913;SDS011;75177;43.832;5.974;2024-03-08T12:55:58;6.30;;;4.43;;
84913;SDS011;75177;43.832;5.974;2024-03-08T12:58:23;8.80;;;4.55;;
84913;SDS011;75177;43.832;5.974;2024-03-08T13:00:50;7.18;;;4.60;;
84913;SDS011;75177;43.832;5.974;2024-03-08T13:03:17;6.97;;;4.45;;
84913;SDS011;75177;43.832;5.974;2024-03-08T13:05:42;6.95;;;4.22;;
84913;SDS011;75177;43.832;5.974;2024-03-08T13:08:08;11.82;;;5.95;;
84913;SDS011;75177;43.832;5.974;2024-03-08T13:10:41;7.05;;;4.47;;
84913;SDS011;75177;43.832;5.974;2024-03-08T13:13:09;9.25;;;5.63;;
84913;SDS011;75177;43.832;5.974;2024-03-08T13:15:35;11.77;;;4.30;;
84913;SDS011;75177;43.832;5.974;2024-03-08T13:18:01;17.45;;;8.18;;
84913;SDS011;75177;43.832;5.974;2024-03-08T13:20:26;10.65;;;5.25;;
84913;SDS011;75177;43.832;5.974;2024-03-08T13:22:53;7.47;;;4.53;;
84913;SDS011;75177;43.832;5.974;2024-03-08T13:25:18;9.70;;;5.15;;
84913;SDS011;75177;43.832;5.974;2024-03-08T13:27:45;12.25;;;5.50;;
84913;SDS011;75177;43.832;5.974;2024-03-08T13:30:11;13.52;;;5.63;;
84913;SDS011;75177;43.832;5.974;2024-03-08T13:32:39;10.02;;;4.90;;
84913;SDS011;75177;43.832;5.974;2024-03-08T13:35:05;12.77;;;5.57;;
84913;SDS011;75177;43.832;5.974;2024-03-08T13:37:37;15.32;;;4.70;;
84913;SDS011;75177;43.832;5.974;2024-03-08T13:40:06;8.40;;;5.15;;
84913;SDS011;75177;43.832;5.974;2024-03-08T13:42:37;7.97;;;4.57;;
84913;SDS011;75177;43.832;5.974;2024-03-08T13:45:03;7.70;;;4.80;;
84913;SDS011;75177;43.832;5.974;2024-03-08T13:47:32;8.43;;;4.80;;
84913;SDS011;75177;43.832;5.974;2024-03-08T13:49:57;9.73;;;4.82;;
84913;SDS011;75177;43.832;5.974;2024-03-08T13:52:23;8.48;;;4.75;;
84913;SDS011;75177;43.832;5.974;2024-03-08T13:54:50;8.52;;;5.28;;
84913;SDS011;75177;43.832;5.974;2024-03-08T13:57:16;12.27;;;7.28;;
84913;SDS011;75177;43.832;5.974;2024-03-08T13:59:43;12.27;;;7.50;;
84913;SDS011;75177;43.832;5.974;2024-03-08T14:02:09;10.10;;;5.30;;
84913;SDS011;75177;43.832;5.974;2024-03-08T14:04:38;8.10;;;4.78;;
84913;SDS011;75177;43.832;5.974;2024-03-08T14:07:04;15.23;;;5.82;;
84913;SDS011;75177;43.832;5.974;2024-03-08T14:09:33;12.27;;;6.53;;
84913;SDS011;75177;43.832;5.974;2024-03-08T14:12:02;9.48;;;5.70;;
84913;SDS011;75177;43.832;5.974;2024-03-08T14:14:32;10.13;;;5.20;;
84913;SDS011;75177;43.832;5.974;2024-03-08T14:19:26;8.77;;;4.18;;
84913;SDS011;75177;43.832;5.974;2024-03-08T14:21:52;5.90;;;4.07;;
84913;SDS011;75177;43.832;5.974;2024-03-08T14:24:18;8.18;;;5.45;;
84913;SDS011;75177;43.832;5.974;2024-03-08T14:26:44;6.82;;;5.00;;
84913;SDS011;75177;43.832;5.974;2024-03-08T14:29:10;8.20;;;5.45;;
84913;SDS011;75177;43.832;5.974;2024-03-08T14:31:36;8.20;;;5.07;;
84913;SDS011;75177;43.832;5.974;2024-03-08T14:34:02;7.30;;;4.47;;
84913;SDS011;75177;43.832;5.974;2024-03-08T14:36:28;7.15;;;3.80;;
84913;SDS011;75177;43.832;5.974;2024-03-08T14:38:54;7.15;;;4.30;;
84913;SDS011;75177;43.832;5.974;2024-03-08T14:41:19;7.93;;;4.30;;
84913;SDS011;75177;43.832;5.974;2024-03-08T14:43:45;9.18;;;4.82;;
84913;SDS011;75177;43.832;5.974;2024-03-08T14:46:11;7.03;;;4.30;;
84913;SDS011;75177;43.832;5.974;2024-03-08T14:48:45;7.32;;;4.47;;
84913;SDS011;75177;43.832;5.974;2024-03-08T14:51:12;7.78;;;5.13;;
84913;SDS011;75177;43.832;5.974;2024-03-08T14:53:42;6.55;;;4.20;;
84913;SDS011;75177;43.832;5.974;2024-03-08T14:56:10;6.70;;;4.20;;
84913;SDS011;75177;43.832;5.974;2024-03-08T14:58:40;10.18;;;4.88;;
84913;SDS011;75177;43.832;5.974;2024-03-08T15:01:06;10.13;;;4.60;;
84913;SDS011;75177;43.832;5.974;2024-03-08T15:03:35;9.48;;;5.50;;
84913;SDS011;75177;43.832;5.974;2024-03-08T15:06:02;15.30;;;8.20;;
84913;SDS011;75177;43.832;5.974;2024-03-08T15:08:27;6.30;;;4.05;;
84913;SDS011;75177;43.832;5.974;2024-03-08T15:10:53;7.20;;;4.47;;
84913;SDS011;75177;43.832;5.974;2024-03-08T15:13:20;8.02;;;5.05;;
84913;SDS011;75177;43.832;5.974;2024-03-08T15:15:52;9.00;;;4.45;;